Startpagina
METAR-TAF:

METAR-TAF

Vliegvelden :

Aéroport de Cayenne-Félix Eboué

Cayenne, Frans-Guyana

breedte: 04-50N, lengte: 052-22W, hoogte: 105 m

Actueel weer

Dit bericht is 13 minuten geleden gemaakt, om 15:30 UTC
Wind 5 kt uit het oostnoordoosten, variërend tussen het noordnoordoosten en het oosten
Temperatuur 30°C
Vochtigheid 70%
Druk 1013 hPa
Zicht 10 km of meer

METAR: SOCA 161530Z AUTO 06005KT 030V100 9999 FEW011/// SCT033/// BKN049/// ///TCU 30/24 Q1013 BECMG SCT020

Tijdstip: 12:43 (15:43 UTC)

Verwachting

Dit bericht is 5 uur en het 43 minuten geleden gemaakt, om 10:00 UTC
Verwachting geldig van 16 om 12 UTC tot 17 om 12 UTC
Wind 10 kt uit het oosten
Zicht 10 km of meer
Verspreide wolken op 2000 ft
Tijdelijke
van 16 om 18 UTC tot 17 om 12 UTC
Zicht: 3000 m
Verspreide wolken op 1200 ft, Stapelwolken.
regenbuien
Wijzigt naar
van 16 om 22 UTC tot 16 om 24 UTC
Wind 3 kt uit variabele richting

TAF: SOCA 161000Z 1612/1712 09010KT 9999 SCT020 TEMPO 1618/1712 3000 SHRA SCT012TCU BECMG 1622/1624 VRB03KT

Waarnemingen en weersverwachtingen van meer dan 4000 vliegvelden (METAR en TAF).

De beschikbare stations zijn de gele en rode punten op de kaart.

Ga met uw muis naar het station om de naam te zien.

Klik dan om waarnemingen en weersverwachtingen te zien.

kaart wijzigen: klik op de groene knoppen met een zwart kruis om in te zoomen, op de groene knop met een streepje om uit te zoomen of op de groene pijlen voor aangrenzende kaarten.


METAR-TAF: